Che bel sole oggi!

Moderatori: ardix, renato

Rispondi
ardix
Forum Admin
Messaggi: 1449
Iscritto il: domenica 2 maggio 2004, 23:01
Località: LILE

Che bel sole oggi!

Messaggio da ardix » venerdì 5 novembre 2010, 16:59

Immagine

4000 ft inbound TOP (sid TOP6A)...

Metar:
LIMF 051350Z 18003KT 4000 BR BKN007 12/08 Q1027=
LIMK 051355Z 00000KT 0100 FG VV/// 09/09 Q1027 RMK VAL INVIS VIS MIN 0100=
LIMA 051350Z 28002KT 3000 BR SCT007 BKN012 11/09 Q1028 RMK VIS MIN 3000=
LIMZ 051350Z VRB03KT 1600 BR OVC004 09/09 Q1027 RMK VIS MIN 1600=

Come si puo' vedere verso Cuneo peggiorava... invece da casa mia (Ivrea) fino al Lago di Candia era tutto pulito. :)

NB: Non e' nebbia, ma "nebbia alta", cioe' la visibilita' al suolo e' accettabile e lo strato nuvoloso si trova ad alcune centinaia di piedi dal suolo.
Diego Ardissone
P3D v3.4 | FSX:SE

Avatar utente
renato
Forum Admin
Messaggi: 1510
Iscritto il: giovedì 6 maggio 2004, 16:39
Località: Rivoli (TO)

Re: Che bel sole oggi!

Messaggio da renato » venerdì 5 novembre 2010, 21:41

Ora tocca a me

Dalle parti di Bolzano qualche giorno fa. ( Avion A319 LH )

Immagine

mentre questa è di ieri mattina verso le 7:10 appena decollati da Dusseldorf ( Avion B737-500 LH )

Immagine
Renato
Volo Virtuale Torino
Immagine

ardix
Forum Admin
Messaggi: 1449
Iscritto il: domenica 2 maggio 2004, 23:01
Località: LILE

Re: Che bel sole oggi!

Messaggio da ardix » venerdì 5 novembre 2010, 22:23

spettacolo soprattutto la seconda!
Diego Ardissone
P3D v3.4 | FSX:SE

Rispondi